Lähistön asemien METAR-raportit

 

EFJY - Jyvaskyla (mil/C, Finland
Etäisyys Sääasemalta: E 40km
Päivitetty: 19/10/2018 17:20
Selkeätä
Selkeätä
 Tuulen suunta varies
Tuuli: varies 4 km/h
Lämpötila: 5°C
Kastepiste: 2°C
Ilmankosteus: 81%
Ilmanpaine: 1016 hPa
Yhteenveto: Selkeätä
Näkyvyys: Enemmän Kuin 10 km
2018/10/19 17:20 EFJY 191720Z AUTO VRB02KT CAVOK 05/02 Q1016
EFKU - Kuopio (mil/Civ), Finland
Etäisyys Sääasemalta: IKo 106km
Päivitetty: 19/10/2018 17:20
Selkeätä
Selkeätä
 Tuulen suunta LLu
Tuuli: LLu 17 km/h
Lämpötila: 6°C
Tuulen purevuus: 3°C
Kastepiste: 3°C
Ilmankosteus: 81%
Ilmanpaine: 1014 hPa
Yhteenveto: Selkeätä
Näkyvyys: Enemmän Kuin 10 km
2018/10/19 17:20 EFKU 191720Z AUTO 29009KT CAVOK 06/03 Q1014
EFHA - Halli (fin-Afb), Finland
Etäisyys Sääasemalta: ELo 113km
Päivitetty: 19/10/2018 17:20
Enimmäkseen pilvistä
Enimmäkseen pilvistä
 Tuulen suunta L
Tuuli: L 13 km/h
Lämpötila: 5°C
Tuulen purevuus: 2°C
Kastepiste: 3°C
Ilmankosteus: 87%
Ilmanpaine: 1017 hPa
Pilvisyys: Enimmäkseen pilvistä
Näkyvyys: 10 km
Pilvisyystiedot: Enimmäkseen pilvistä 732 m
2018/10/19 17:20 EFHA 191720Z AUTO 27007KT 9999 BKN024 05/03 Q1017
 
EFMI - Mikkeli, Finland
Etäisyys Sääasemalta: EKa 140km
Päivitetty: 19/10/2018 17:20
Selkeätä
Selkeätä
 Tuulen suunta LLo
Tuuli: LLo 13 km/h
Lämpötila: 6°C
Tuulen purevuus: 3°C
Kastepiste: 4°C
Ilmankosteus: 87%
Ilmanpaine: 1016 hPa
Yhteenveto: Selkeätä
Näkyvyys: Enemmän Kuin 10 km
2018/10/19 17:20 EFMI 191720Z AUTO 25007KT CAVOK 06/04 Q1016
EFSI - Seinajoki-Ilmajo, Finland
Etäisyys Sääasemalta: L 150km
Päivitetty: 19/10/2018 17:20
Selkeätä
Selkeätä
 Tuulen suunta Lo
Tuuli: Lo 2 km/h
Lämpötila: 4°C
Kastepiste: 2°C
Ilmankosteus: 87%
Ilmanpaine: 1017 hPa
Yhteenveto: Selkeätä
Näkyvyys: Enemmän Kuin 10 km
2018/10/19 17:20 EFSI 191720Z AUTO 23001KT CAVOK 04/02 Q1017
EFKK - Kruunupyy, Finland
Etäisyys Sääasemalta: Lu 170km
Päivitetty: 19/10/2018 17:20
Selkeätä
Selkeätä
 Tuulen suunta Lo
Tuuli: Lo 9 km/h
Lämpötila: 5°C
Tuulen purevuus: 3°C
Kastepiste: 4°C
Ilmankosteus: 93%
Ilmanpaine: 1016 hPa
Yhteenveto: Selkeätä
Näkyvyys: Enemmän Kuin 10 km
2018/10/19 17:20 EFKK 191720Z 23005KT CAVOK 05/04 Q1016
 
EFSA - Savonlinna (aut), Finland
Etäisyys Sääasemalta: IKa 186km
Päivitetty: 19/10/2018 17:20
Enimmäkseen pilvistä
Enimmäkseen pilvistä
 Tuulen suunta LLo
Tuuli: LLo 11 km/h
Lämpötila: 6°C
Tuulen purevuus: 4°C
Kastepiste: 4°C
Ilmankosteus: 87%
Ilmanpaine: 1015 hPa
Pilvisyys: Enimmäkseen pilvistä
Näkyvyys: 10 km
Pilvisyystiedot: Enimmäkseen pilvistä 792 m
2018/10/19 17:20 EFSA 191720Z AUTO 25006KT 230V290 9999 BKN026 06/04 Q1015
EFTP - Tampere/Pirkkala, Finland
Etäisyys Sääasemalta: Lo 187km
Päivitetty: 19/10/2018 17:20
Selkeätä
Selkeätä
 Tuulen suunta LLo
Tuuli: LLo 11 km/h
Lämpötila: 5°C
Tuulen purevuus: 2°C
Kastepiste: 3°C
Ilmankosteus: 87%
Ilmanpaine: 1018 hPa
Yhteenveto: Selkeätä
Näkyvyys: Enemmän Kuin 10 km
2018/10/19 17:20 EFTP 191720Z AUTO 25006KT CAVOK 05/03 Q1018
EFKI - Kajaani, Finland
Etäisyys Sääasemalta: PKo 192km
Päivitetty: 19/10/2018 17:20
Selkeätä
Selkeätä
 Tuulen suunta LLu
Tuuli: LLu 17 km/h
Lämpötila: 6°C
Tuulen purevuus: 3°C
Kastepiste: 3°C
Ilmankosteus: 81%
Ilmanpaine: 1013 hPa
Yhteenveto: Selkeätä
Näkyvyys: Enemmän Kuin 10 km
2018/10/19 17:20 EFKI 191720Z AUTO 29009KT CAVOK 06/03 Q1013
 
EFJO - Joensuu, Finland
Etäisyys Sääasemalta: I 196km
Päivitetty: 19/10/2018 17:20
Joitain Pilviä
Joitain Pilviä
 Tuulen suunta L
Tuuli: L 15 km/h
Lämpötila: 7°C
Tuulen purevuus: 4°C
Kastepiste: 4°C
Ilmankosteus: 81%
Ilmanpaine: 1013 hPa
Pilvisyys: Joitain Pilviä
Näkyvyys: 10 km
Pilvisyystiedot: Joitain Pilviä 732 m
2018/10/19 17:20 EFJO 191720Z AUTO 26008KT 230V300 9999 FEW024 07/04 Q1013